createdAt,value
2017-05-30T00:00:25.323Z,24.20
2017-05-30T00:01:27.385Z,24.19
2017-05-30T00:02:28.812Z,24.02
2017-05-30T00:03:31.529Z,23.87
2017-05-30T00:04:34.244Z,23.92
2017-05-30T00:05:36.872Z,24.02
2017-05-30T00:06:39.541Z,24.04
2017-05-30T00:07:40.970Z,23.89
2017-05-30T00:08:44.309Z,23.85
2017-05-30T00:09:46.939Z,24.00
2017-05-30T00:10:49.636Z,23.86
2017-05-30T00:11:51.663Z,24.10
2017-05-30T00:12:53.116Z,24.00
2017-05-30T00:14:57.379Z,23.86
2017-05-30T00:15:59.726Z,23.95
2017-05-30T00:18:03.212Z,23.94
2017-05-30T00:19:06.053Z,23.89
2017-05-30T00:20:07.491Z,23.97
2017-05-30T00:21:10.272Z,23.71
2017-05-30T00:22:13.278Z,23.76
2017-05-30T00:23:17.935Z,23.82
2017-05-30T00:24:20.686Z,23.90
2017-05-30T00:25:22.783Z,23.87
2017-05-30T00:26:24.212Z,23.71
2017-05-30T00:27:26.623Z,23.83
2017-05-30T00:28:28.483Z,23.87
2017-05-30T00:29:30.674Z,23.89
2017-05-30T00:30:33.565Z,23.85
2017-05-30T00:31:34.989Z,23.83
2017-05-30T00:32:37.705Z,23.86
2017-05-30T00:33:41.635Z,23.77
2017-05-30T00:34:43.214Z,23.87
2017-05-30T00:35:45.852Z,23.79
2017-05-30T00:37:49.875Z,23.80
2017-05-30T00:38:52.241Z,23.71
2017-05-30T00:39:53.671Z,23.71
2017-05-30T00:40:57.580Z,23.80
2017-05-30T00:42:01.305Z,23.82
2017-05-30T00:44:08.371Z,23.77
2017-05-30T00:45:09.801Z,23.50
2017-05-30T00:46:13.769Z,23.68
2017-05-30T00:47:15.671Z,23.60
2017-05-30T00:48:18.239Z,23.45
2017-05-30T00:49:20.195Z,23.46
2017-05-30T00:50:21.628Z,23.49
2017-05-30T00:51:23.723Z,23.46
2017-05-30T00:52:25.721Z,23.34
2017-05-30T00:53:28.546Z,23.46
2017-05-30T00:54:29.974Z,23.52
2017-05-30T00:55:32.192Z,23.40
2017-05-30T00:56:36.741Z,23.40
2017-05-30T00:57:38.169Z,23.34
2017-05-30T00:58:42.478Z,23.23
2017-05-30T00:59:44.619Z,22.93
2017-05-30T01:00:46.624Z,23.09
2017-05-30T01:01:48.841Z,23.15
2017-05-30T01:02:50.270Z,23.09
2017-05-30T01:03:53.366Z,23.17
2017-05-30T01:04:55.410Z,23.35
2017-05-30T01:05:56.840Z,23.26
2017-05-30T01:06:58.268Z,23.22
2017-05-30T01:08:00.641Z,23.08
2017-05-30T01:09:02.066Z,23.17
2017-05-30T01:10:04.197Z,23.26
2017-05-30T01:11:05.625Z,23.20
2017-05-30T01:12:07.605Z,23.04
2017-05-30T01:13:09.041Z,23.02
2017-05-30T01:14:11.356Z,23.07
2017-05-30T01:15:12.782Z,22.93
2017-05-30T01:16:14.862Z,23.04
2017-05-30T01:17:16.289Z,23.11
2017-05-30T01:18:17.725Z,23.02
2017-05-30T01:19:19.159Z,22.84
2017-05-30T01:20:20.588Z,22.90
2017-05-30T01:21:22.013Z,22.86
2017-05-30T01:22:27.356Z,22.86
2017-05-30T01:23:29.333Z,22.93
2017-05-30T01:24:30.762Z,22.72
2017-05-30T01:25:33.694Z,22.82
2017-05-30T01:26:35.814Z,22.93
2017-05-30T01:27:37.239Z,22.87
2017-05-30T01:28:38.675Z,22.82
2017-05-30T01:29:40.718Z,22.87
2017-05-30T01:30:42.908Z,22.75
2017-05-30T01:31:44.340Z,22.83
2017-05-30T01:32:46.441Z,22.80
2017-05-30T01:33:47.871Z,22.83
2017-05-30T01:34:49.307Z,22.59
2017-05-30T01:35:51.327Z,22.59
2017-05-30T01:36:52.752Z,22.77
2017-05-30T01:37:55.095Z,22.65
2017-05-30T01:38:56.522Z,22.80
2017-05-30T01:39:58.670Z,22.71
2017-05-30T01:41:00.103Z,22.68
2017-05-30T01:42:02.074Z,22.74
2017-05-30T01:43:03.504Z,22.74
2017-05-30T01:44:04.931Z,22.71
2017-05-30T01:45:06.359Z,22.68
2017-05-30T01:46:07.783Z,22.71
2017-05-30T01:47:09.213Z,22.72
2017-05-30T01:48:11.198Z,22.64
2017-05-30T01:49:12.630Z,22.49
2017-05-30T01:50:14.868Z,22.59
2017-05-30T01:51:16.453Z,22.56
2017-05-30T01:52:18.600Z,22.53
2017-05-30T01:53:20.026Z,22.49
2017-05-30T01:54:22.441Z,22.44
2017-05-30T01:55:23.880Z,22.52
2017-05-30T01:56:26.020Z,22.46
2017-05-30T01:57:27.451Z,22.39
2017-05-30T01:58:29.477Z,22.29
2017-05-30T01:59:30.902Z,22.20
2017-05-30T02:00:32.332Z,22.25
2017-05-30T02:01:34.301Z,22.14
2017-05-30T02:02:35.741Z,22.16
2017-05-30T02:03:38.118Z,22.27
2017-05-30T02:04:39.547Z,22.28
2017-05-30T02:05:41.762Z,22.28
2017-05-30T02:06:43.197Z,22.34
2017-05-30T02:07:45.249Z,22.28
2017-05-30T02:08:46.679Z,22.25
2017-05-30T02:09:48.123Z,22.28
2017-05-30T02:10:50.530Z,22.22
2017-05-30T02:11:52.625Z,22.28
2017-05-30T02:12:54.053Z,22.28
2017-05-30T02:13:56.439Z,22.39
2017-05-30T02:14:57.457Z,22.19
2017-05-30T02:15:58.899Z,22.25
2017-05-30T02:17:01.158Z,22.34
2017-05-30T02:18:02.589Z,22.10
2017-05-30T02:19:04.618Z,22.07
2017-05-30T02:20:06.045Z,22.12
2017-05-30T02:21:07.470Z,22.14
2017-05-30T02:22:09.445Z,22.10
2017-05-30T02:23:10.931Z,21.82
2017-05-30T02:24:13.115Z,21.92
2017-05-30T02:25:14.547Z,22.04
2017-05-30T02:26:16.536Z,22.13
2017-05-30T02:27:17.963Z,22.10
2017-05-30T02:28:19.399Z,22.07
2017-05-30T02:29:21.796Z,22.13
2017-05-30T02:30:23.228Z,21.82
2017-05-30T02:31:25.362Z,21.83
2017-05-30T02:32:26.854Z,21.76
2017-05-30T02:33:29.257Z,21.83
2017-05-30T02:34:30.687Z,21.83
2017-05-30T02:35:32.880Z,21.90
2017-05-30T02:36:34.309Z,21.79
2017-05-30T02:37:36.280Z,21.94
2017-05-30T02:38:37.706Z,22.10
2017-05-30T02:39:39.950Z,22.10
2017-05-30T02:40:41.489Z,22.09
2017-05-30T02:41:43.516Z,22.10
2017-05-30T02:42:44.956Z,21.83
2017-05-30T02:43:46.384Z,21.72
2017-05-30T02:44:48.418Z,21.81
2017-05-30T02:45:49.849Z,21.63
2017-05-30T02:46:52.208Z,21.71
2017-05-30T02:47:53.640Z,21.66
2017-05-30T02:48:55.782Z,21.74
2017-05-30T02:49:57.211Z,21.71
2017-05-30T02:50:59.204Z,21.76
2017-05-30T02:52:00.634Z,21.79
2017-05-30T02:53:02.065Z,21.53
2017-05-30T02:54:04.018Z,21.67
2017-05-30T02:55:05.450Z,21.71
2017-05-30T02:56:07.687Z,21.66
2017-05-30T02:57:09.122Z,21.57
2017-05-30T02:58:11.153Z,21.41
2017-05-30T02:59:12.584Z,21.46
2017-05-30T03:00:14.009Z,21.66
2017-05-30T03:01:15.959Z,21.69
2017-05-30T03:02:17.393Z,21.79
2017-05-30T03:03:19.767Z,21.74
2017-05-30T03:04:21.193Z,21.82
2017-05-30T03:05:23.385Z,21.59
2017-05-30T03:06:24.815Z,21.71
2017-05-30T03:07:26.779Z,21.36
2017-05-30T03:08:28.211Z,21.45
2017-05-30T03:09:30.536Z,21.46
2017-05-30T03:10:31.591Z,21.59
2017-05-30T03:11:33.017Z,21.35
2017-05-30T03:12:35.379Z,21.50
2017-05-30T03:13:36.811Z,21.41
2017-05-30T03:14:38.873Z,21.44
2017-05-30T03:15:40.309Z,21.36
2017-05-30T03:16:42.261Z,21.23
2017-05-30T03:17:43.686Z,21.16
2017-05-30T03:18:45.118Z,21.32
2017-05-30T03:19:47.555Z,21.27
2017-05-30T03:20:49.716Z,21.09
2017-05-30T03:21:51.147Z,20.95
2017-05-30T03:22:52.580Z,21.19
2017-05-30T03:23:54.672Z,21.36
2017-05-30T03:24:56.119Z,21.41
2017-05-30T03:25:58.089Z,21.56
2017-05-30T03:26:59.519Z,21.53
2017-05-30T03:28:01.795Z,21.63
2017-05-30T03:29:03.226Z,21.41
2017-05-30T03:30:05.278Z,21.16
2017-05-30T03:31:06.705Z,21.16
2017-05-30T03:32:08.136Z,21.24
2017-05-30T03:33:10.101Z,21.30
2017-05-30T03:34:11.532Z,21.14
2017-05-30T03:35:13.783Z,21.16
2017-05-30T03:36:21.475Z,21.01
2017-05-30T03:37:23.487Z,21.14
2017-05-30T03:38:24.913Z,21.38
2017-05-30T03:39:26.346Z,21.30
2017-05-30T03:40:28.322Z,21.17
2017-05-30T03:41:29.756Z,21.30
2017-05-30T03:42:32.008Z,21.35
2017-05-30T03:43:33.439Z,21.42
2017-05-30T03:44:35.482Z,21.46
2017-05-30T03:45:36.910Z,21.38
2017-05-30T03:46:38.341Z,21.14
2017-05-30T03:47:40.762Z,21.14
2017-05-30T03:48:42.849Z,20.98
2017-05-30T03:49:44.397Z,21.21
2017-05-30T03:50:45.823Z,21.30
2017-05-30T03:51:48.262Z,21.38
2017-05-30T03:52:50.345Z,21.32
2017-05-30T03:53:51.934Z,21.21
2017-05-30T03:54:53.380Z,21.38
2017-05-30T03:55:55.511Z,21.36
2017-05-30T03:56:56.938Z,21.48
2017-05-30T03:57:58.904Z,21.53
2017-05-30T03:59:00.338Z,21.54
2017-05-30T04:00:02.576Z,21.48
2017-05-30T04:01:04.001Z,21.44
2017-05-30T04:02:05.963Z,21.44
2017-05-30T04:03:07.403Z,21.38
2017-05-30T04:04:08.836Z,21.29
2017-05-30T04:05:11.238Z,21.32
2017-05-30T04:06:12.672Z,21.35
2017-05-30T04:07:14.771Z,21.38
2017-05-30T04:08:16.204Z,21.39
2017-05-30T04:09:18.600Z,21.39
2017-05-30T04:10:20.031Z,21.38
2017-05-30T04:11:22.179Z,21.44
2017-05-30T04:12:23.605Z,21.59
2017-05-30T04:13:26.024Z,21.53
2017-05-30T04:14:27.457Z,21.29
2017-05-30T04:15:29.662Z,21.38
2017-05-30T04:16:31.087Z,21.38
2017-05-30T04:17:33.487Z,21.32
2017-05-30T04:18:34.917Z,21.32
2017-05-30T04:19:37.063Z,21.36
2017-05-30T04:20:38.496Z,21.36
2017-05-30T04:21:40.490Z,21.32
2017-05-30T04:22:41.917Z,21.29
2017-05-30T04:23:43.352Z,21.45
2017-05-30T04:24:45.358Z,21.42
2017-05-30T04:25:46.799Z,21.34
2017-05-30T04:26:49.146Z,21.32
2017-05-30T04:27:50.576Z,21.30
2017-05-30T04:28:52.593Z,21.26
2017-05-30T04:29:54.024Z,21.30
2017-05-30T04:30:55.453Z,21.39
2017-05-30T04:31:57.425Z,21.50
2017-05-30T04:32:58.852Z,21.50
2017-05-30T04:34:01.100Z,21.45
2017-05-30T04:35:04.499Z,21.34
2017-05-30T04:36:06.472Z,21.39
2017-05-30T04:37:07.917Z,21.39
2017-05-30T04:38:09.348Z,21.34
2017-05-30T04:39:11.725Z,21.42
2017-05-30T04:40:13.149Z,21.45
2017-05-30T04:41:15.379Z,21.53
2017-05-30T04:42:16.810Z,21.46
2017-05-30T04:43:18.864Z,21.67
2017-05-30T04:44:20.297Z,21.69
2017-05-30T04:45:22.280Z,21.67
2017-05-30T04:46:23.710Z,21.76
2017-05-30T04:47:25.145Z,21.61
2017-05-30T04:48:27.538Z,21.74
2017-05-30T04:49:29.607Z,21.57
2017-05-30T04:50:31.034Z,21.76
2017-05-30T04:51:33.517Z,21.78
2017-05-30T04:52:34.944Z,21.81
2017-05-30T04:53:37.099Z,21.92
2017-05-30T04:54:38.529Z,21.78
2017-05-30T04:55:39.958Z,21.46
2017-05-30T04:56:42.019Z,21.60
2017-05-30T04:57:43.463Z,21.51
2017-05-30T04:58:45.872Z,21.45
2017-05-30T04:59:47.303Z,21.50
2017-05-30T05:00:49.461Z,21.50
2017-05-30T05:01:50.899Z,21.46
2017-05-30T05:02:52.877Z,21.46
2017-05-30T05:03:54.310Z,21.42
2017-05-30T05:04:55.737Z,21.54
2017-05-30T05:06:03.668Z,21.60
2017-05-30T05:07:05.099Z,21.78
2017-05-30T05:08:07.228Z,21.66
2017-05-30T05:09:08.668Z,21.74
2017-05-30T05:10:10.661Z,21.78
2017-05-30T05:11:15.973Z,21.79
2017-05-30T05:12:17.409Z,21.82
2017-05-30T05:13:19.588Z,22.01
2017-05-30T05:14:21.019Z,21.95
2017-05-30T05:15:22.979Z,21.97
2017-05-30T05:16:24.417Z,21.79
2017-05-30T05:17:25.843Z,21.85
2017-05-30T05:18:27.815Z,21.76
2017-05-30T05:19:29.252Z,21.78
2017-05-30T05:20:31.544Z,21.66
2017-05-30T05:21:32.973Z,21.90
2017-05-30T05:22:35.014Z,21.83
2017-05-30T05:23:36.443Z,21.82
2017-05-30T05:24:37.879Z,21.82
2017-05-30T05:25:39.980Z,21.74
2017-05-30T05:26:41.407Z,21.83
2017-05-30T05:27:43.365Z,21.83
2017-05-30T05:28:44.798Z,21.82
2017-05-30T05:29:47.105Z,21.81
2017-05-30T05:30:48.534Z,21.83
2017-05-30T05:31:50.593Z,21.92
2017-05-30T05:32:52.026Z,21.67
2017-05-30T05:33:54.334Z,21.76
2017-05-30T05:34:55.419Z,21.83
2017-05-30T05:35:56.854Z,21.69
2017-05-30T05:36:59.146Z,21.81
2017-05-30T05:38:00.577Z,21.66
2017-05-30T05:39:02.609Z,21.75
2017-05-30T05:40:04.035Z,21.75
2017-05-30T05:41:05.468Z,21.75
2017-05-30T05:42:07.869Z,21.66
2017-05-30T05:43:09.893Z,21.61
2017-05-30T05:44:11.314Z,21.57
2017-05-30T05:45:12.748Z,21.60
2017-05-30T05:46:15.036Z,21.69
2017-05-30T05:47:16.469Z,21.60
2017-05-30T05:48:18.553Z,21.59
2017-05-30T05:49:19.983Z,21.56
2017-05-30T05:50:22.357Z,21.45
2017-05-30T05:51:23.494Z,21.45
2017-05-30T05:52:24.929Z,21.53
2017-05-30T05:53:27.354Z,21.46
2017-05-30T05:54:29.411Z,21.48
2017-05-30T05:55:30.835Z,21.61
2017-05-30T05:56:32.265Z,21.67
2017-05-30T05:57:34.240Z,21.60
2017-05-30T05:58:35.666Z,21.44
2017-05-30T05:59:37.866Z,21.53
2017-05-30T06:00:39.454Z,21.57
2017-05-30T06:01:41.464Z,21.42
2017-05-30T06:02:42.897Z,21.69
2017-05-30T06:03:44.327Z,21.61
2017-05-30T06:04:46.303Z,21.32
2017-05-30T06:05:47.739Z,21.42
2017-05-30T06:06:49.903Z,21.51
2017-05-30T06:07:51.379Z,21.53
2017-05-30T06:08:53.397Z,21.81
2017-05-30T06:09:54.896Z,21.78
2017-05-30T06:10:56.326Z,21.81
2017-05-30T06:11:58.716Z,21.87
2017-05-30T06:13:00.151Z,21.94
2017-05-30T06:14:02.270Z,22.14
2017-05-30T06:15:03.707Z,22.13
2017-05-30T06:16:06.042Z,22.17
2017-05-30T06:17:07.469Z,22.16
2017-05-30T06:18:09.518Z,22.17
2017-05-30T06:19:10.957Z,22.29
2017-05-30T06:20:12.386Z,22.13
2017-05-30T06:21:14.781Z,22.17
2017-05-30T06:22:16.213Z,22.16
2017-05-30T06:23:18.334Z,22.16
2017-05-30T06:24:19.770Z,22.32
2017-05-30T06:25:22.177Z,21.91
2017-05-30T06:26:23.605Z,22.06
2017-05-30T06:27:25.863Z,22.22
2017-05-30T06:28:27.292Z,22.28
2017-05-30T06:30:34.197Z,22.02
2017-05-30T06:31:35.630Z,22.22
2017-05-30T06:32:37.652Z,22.23
2017-05-30T06:33:40.775Z,22.29
2017-05-30T06:34:42.205Z,22.25
2017-05-30T06:35:43.637Z,22.19
2017-05-30T06:36:45.622Z,22.32
2017-05-30T06:37:47.112Z,22.32
2017-05-30T06:38:49.405Z,22.49
2017-05-30T06:39:50.838Z,22.59
2017-05-30T06:40:52.945Z,22.60
2017-05-30T06:41:54.375Z,22.32
2017-05-30T06:42:56.759Z,22.35
2017-05-30T06:43:58.185Z,22.17
2017-05-30T06:44:59.608Z,22.29
2017-05-30T06:46:01.946Z,22.23
2017-05-30T06:47:03.937Z,22.31
2017-05-30T06:48:05.369Z,22.39
2017-05-30T06:49:08.326Z,22.38
2017-05-30T06:50:10.279Z,22.25
2017-05-30T06:51:11.881Z,22.29
2017-05-30T06:52:13.318Z,22.09
2017-05-30T06:53:15.750Z,22.17
2017-05-30T06:54:17.921Z,22.27
2017-05-30T06:55:19.353Z,22.32
2017-05-30T06:56:20.795Z,22.35
2017-05-30T06:57:22.927Z,22.25
2017-05-30T06:58:25.981Z,22.17
2017-05-30T06:59:28.325Z,22.23
2017-05-30T07:00:29.430Z,22.27
2017-05-30T07:01:30.863Z,22.25
2017-05-30T07:02:33.208Z,22.23
2017-05-30T07:03:34.638Z,22.22
2017-05-30T07:04:36.766Z,22.19
2017-05-30T07:05:38.195Z,22.23
2017-05-30T07:06:40.562Z,22.23
2017-05-30T07:07:42.000Z,22.39
2017-05-30T07:08:44.168Z,22.43
2017-05-30T07:09:47.188Z,22.46
2017-05-30T07:10:48.628Z,22.39
2017-05-30T07:11:50.733Z,22.52
2017-05-30T07:12:52.163Z,22.65
2017-05-30T07:13:54.570Z,22.43
2017-05-30T07:14:56.005Z,22.25
2017-05-30T07:15:58.171Z,22.53
2017-05-30T07:16:59.601Z,22.53
2017-05-30T07:18:02.012Z,22.56
2017-05-30T07:19:03.441Z,22.74
2017-05-30T07:20:04.886Z,22.78
2017-05-30T07:21:07.269Z,22.75
2017-05-30T07:22:09.976Z,22.82
2017-05-30T07:23:12.818Z,22.83
2017-05-30T07:24:14.254Z,22.65
2017-05-30T07:25:16.218Z,22.80
2017-05-30T07:26:17.652Z,22.80
2017-05-30T07:27:19.089Z,22.99
2017-05-30T07:28:21.054Z,22.65
2017-05-30T07:29:22.490Z,22.65
2017-05-30T07:30:24.748Z,22.78
2017-05-30T07:31:26.182Z,22.69
2017-05-30T07:32:28.275Z,22.59
2017-05-30T07:33:29.706Z,22.78
2017-05-30T07:34:32.073Z,22.74
2017-05-30T07:35:33.043Z,22.89
2017-05-30T07:36:34.480Z,22.75
2017-05-30T07:37:36.764Z,22.94
2017-05-30T07:38:38.197Z,22.87
2017-05-30T07:39:42.902Z,22.89
2017-05-30T07:40:45.153Z,22.62
2017-05-30T07:41:46.585Z,22.75
2017-05-30T07:42:48.556Z,22.89
2017-05-30T07:43:50.090Z,23.02
2017-05-30T07:44:53.052Z,22.87
2017-05-30T07:45:54.489Z,23.01
2017-05-30T07:46:56.485Z,22.90
2017-05-30T07:47:57.922Z,22.77
2017-05-30T07:49:00.181Z,22.93
2017-05-30T07:50:01.299Z,22.97
2017-05-30T07:51:02.736Z,22.75
2017-05-30T07:52:04.933Z,23.09
2017-05-30T07:53:06.367Z,23.07
2017-05-30T07:54:07.795Z,23.23
2017-05-30T07:55:09.882Z,22.90
2017-05-30T07:56:11.307Z,22.99
2017-05-30T07:57:12.745Z,23.09
2017-05-30T07:58:14.173Z,23.15
2017-05-30T07:59:15.621Z,23.15
2017-05-30T08:00:18.010Z,23.42
2017-05-30T08:01:19.445Z,23.39
2017-05-30T08:02:21.662Z,23.19
2017-05-30T08:03:23.097Z,23.23
2017-05-30T08:04:25.112Z,23.12
2017-05-30T08:05:28.471Z,23.31
2017-05-30T08:06:29.896Z,23.40
2017-05-30T08:07:32.108Z,23.50
2017-05-30T08:08:34.421Z,23.20
2017-05-30T08:09:35.488Z,23.02
2017-05-30T08:10:36.922Z,23.05
2017-05-30T08:11:39.293Z,23.12
2017-05-30T08:12:40.728Z,23.09
2017-05-30T08:13:42.167Z,23.01
2017-05-30T08:14:43.629Z,23.02
2017-05-30T08:15:45.056Z,22.78
2017-05-30T08:16:47.182Z,22.84
2017-05-30T08:17:48.612Z,23.05
2017-05-30T08:18:51.037Z,23.09
2017-05-30T08:19:52.472Z,23.19
2017-05-30T08:20:54.672Z,23.31
2017-05-30T08:21:56.108Z,23.49
2017-05-30T08:22:58.138Z,23.47
2017-05-30T08:23:59.576Z,23.67
2017-05-30T08:25:01.022Z,23.68
2017-05-30T08:26:03.004Z,23.75
2017-05-30T08:27:04.443Z,23.83
2017-05-30T08:28:06.701Z,23.80
2017-05-30T08:29:08.137Z,24.01
2017-05-30T08:30:09.571Z,23.95
2017-05-30T08:31:11.630Z,23.80
2017-05-30T08:32:13.058Z,23.89
2017-05-30T08:33:15.411Z,23.92
2017-05-30T08:34:16.850Z,23.98
2017-05-30T08:35:19.023Z,24.22
2017-05-30T08:36:20.467Z,24.35
2017-05-30T08:37:22.901Z,24.02
2017-05-30T08:38:24.330Z,23.76
2017-05-30T08:39:26.524Z,23.68
2017-05-30T08:40:27.958Z,23.68
2017-05-30T08:41:30.346Z,23.82
2017-05-30T08:42:31.782Z,23.92
2017-05-30T08:43:33.997Z,23.87
2017-05-30T08:44:35.433Z,23.86
2017-05-30T08:45:37.862Z,23.76
2017-05-30T08:46:39.298Z,24.01
2017-05-30T08:47:41.533Z,24.10
2017-05-30T08:48:42.971Z,24.37
2017-05-30T08:49:44.988Z,24.52
2017-05-30T08:50:46.424Z,24.49
2017-05-30T08:51:51.480Z,24.63
2017-05-30T08:52:53.492Z,24.57
2017-05-30T08:53:54.928Z,24.49
2017-05-30T08:54:57.173Z,24.34
2017-05-30T08:55:58.613Z,24.47
2017-05-30T08:57:00.677Z,24.57
2017-05-30T08:58:02.115Z,24.34
2017-05-30T08:59:03.548Z,24.26
2017-05-30T09:00:05.585Z,24.37
2017-05-30T09:01:07.019Z,24.63
2017-05-30T09:02:09.849Z,24.76
2017-05-30T09:03:11.922Z,24.27
2017-05-30T09:04:13.373Z,24.22
2017-05-30T09:05:15.713Z,24.49
2017-05-30T09:06:16.765Z,24.49
2017-05-30T09:07:18.201Z,24.64
2017-05-30T09:08:20.463Z,24.52
2017-05-30T09:09:21.896Z,24.63
2017-05-30T09:10:23.328Z,24.64
2017-05-30T09:11:25.397Z,24.56
2017-05-30T09:12:26.835Z,24.53
2017-05-30T09:13:29.201Z,24.67
2017-05-30T09:14:30.646Z,24.79
2017-05-30T09:15:32.757Z,24.82
2017-05-30T09:16:34.202Z,24.94
2017-05-30T09:17:36.614Z,24.91
2017-05-30T09:18:38.729Z,24.91
2017-05-30T09:19:40.242Z,24.73
2017-05-30T09:20:41.677Z,24.67
2017-05-30T09:21:43.743Z,24.68
2017-05-30T09:22:45.183Z,25.06
2017-05-30T09:23:46.616Z,25.44
2017-05-30T09:24:48.929Z,25.53
2017-05-30T09:25:50.954Z,25.56
2017-05-30T09:26:52.397Z,25.30
2017-05-30T09:27:53.828Z,25.12
2017-05-30T09:28:56.196Z,25.07
2017-05-30T09:29:57.635Z,25.13
2017-05-30T09:30:59.768Z,25.15
2017-05-30T09:32:01.200Z,24.83
2017-05-30T09:33:03.619Z,25.13
2017-05-30T09:34:05.066Z,25.12
2017-05-30T09:35:07.281Z,25.13
2017-05-30T09:36:08.724Z,25.07
2017-05-30T09:37:10.726Z,25.43
2017-05-30T09:38:12.171Z,25.46
2017-05-30T09:39:14.388Z,25.07
2017-05-30T09:40:15.847Z,24.80
2017-05-30T09:41:18.240Z,24.92
2017-05-30T09:42:18.652Z,24.97
2017-05-30T09:43:20.087Z,24.94
2017-05-30T09:44:21.530Z,25.05
2017-05-30T09:45:23.721Z,25.15
2017-05-30T09:46:25.157Z,24.91
2017-05-30T09:47:27.174Z,24.95
2017-05-30T09:49:33.513Z,24.92
2017-05-30T09:50:35.660Z,25.38
2017-05-30T09:51:37.099Z,25.84
2017-05-30T09:52:39.066Z,25.56
2017-05-30T09:53:40.622Z,25.69
2017-05-30T09:54:42.062Z,25.87
2017-05-30T09:55:44.452Z,25.91
2017-05-30T09:56:46.569Z,25.59
2017-05-30T09:57:48.074Z,25.61
2017-05-30T09:58:49.513Z,25.62
2017-05-30T09:59:51.607Z,25.57
2017-05-30T10:00:53.049Z,25.59
2017-05-30T10:01:55.244Z,25.90
2017-05-30T10:02:56.680Z,25.79
2017-05-30T10:03:58.660Z,25.80
2017-05-30T10:05:00.098Z,25.94
2017-05-30T10:06:01.533Z,25.94
2017-05-30T10:07:03.565Z,25.87
2017-05-30T10:08:05.002Z,25.77
2017-05-30T10:09:07.330Z,25.91
2017-05-30T10:10:08.763Z,25.87
2017-05-30T10:11:10.948Z,26.02
2017-05-30T10:12:12.382Z,25.93
2017-05-30T10:13:14.807Z,25.82
2017-05-30T10:14:16.236Z,25.83
2017-05-30T10:15:18.534Z,26.11
2017-05-30T10:16:19.977Z,26.02
2017-05-30T10:17:22.040Z,26.22
2017-05-30T10:18:23.476Z,26.35
2017-05-30T10:19:25.768Z,26.50
2017-05-30T10:20:27.204Z,26.89
2017-05-30T10:21:28.639Z,26.98
2017-05-30T10:22:30.983Z,26.99
2017-05-30T10:23:32.421Z,26.99
2017-05-30T10:24:34.549Z,26.99
2017-05-30T10:25:35.977Z,26.86
2017-05-30T10:26:37.956Z,26.95
2017-05-30T10:27:39.390Z,26.98
2017-05-30T10:28:41.629Z,27.01
2017-05-30T10:29:43.163Z,27.11
2017-05-30T10:30:44.613Z,27.04
2017-05-30T10:31:46.649Z,26.86
2017-05-30T10:32:48.090Z,26.74
2017-05-30T10:33:50.502Z,26.31
2017-05-30T10:34:51.934Z,26.25
2017-05-30T10:35:54.190Z,26.11
2017-05-30T10:36:56.149Z,26.11
2017-05-30T10:37:57.689Z,26.22
2017-05-30T10:38:59.130Z,26.28
2017-05-30T10:40:01.536Z,26.50
2017-05-30T10:41:04.075Z,26.62
2017-05-30T10:42:05.515Z,26.32
2017-05-30T10:43:07.814Z,26.20
2017-05-30T10:44:09.254Z,26.09
2017-05-30T10:45:11.282Z,26.44
2017-05-30T10:46:13.408Z,26.01
2017-05-30T10:47:15.581Z,26.28
2017-05-30T10:48:17.022Z,26.50
2017-05-30T10:49:18.999Z,26.91
2017-05-30T10:50:20.438Z,26.73
2017-05-30T10:51:21.890Z,26.92
2017-05-30T10:52:24.177Z,27.04
2017-05-30T10:53:25.620Z,26.95
2017-05-30T10:54:27.765Z,27.33
2017-05-30T10:55:29.202Z,27.05
2017-05-30T10:56:30.633Z,27.10
2017-05-30T10:57:32.072Z,27.10
2017-05-30T10:58:33.510Z,27.32
2017-05-30T10:59:35.897Z,27.48
2017-05-30T11:00:37.332Z,27.79
2017-05-30T11:01:39.461Z,27.71
2017-05-30T11:02:40.902Z,27.82
2017-05-30T11:03:43.261Z,27.66
2017-05-30T11:04:44.706Z,27.53
2017-05-30T11:05:46.825Z,27.84
2017-05-30T11:06:48.273Z,27.74
2017-05-30T11:07:50.219Z,27.86
2017-05-30T11:08:51.684Z,27.80
2017-05-30T11:09:53.127Z,27.73
2017-05-30T11:10:55.433Z,27.89
2017-05-30T11:11:56.868Z,27.89
2017-05-30T11:12:58.920Z,27.58
2017-05-30T11:14:00.444Z,27.19
2017-05-30T11:15:02.720Z,26.95
2017-05-30T11:16:03.838Z,26.72
2017-05-30T11:17:05.297Z,26.15
2017-05-30T11:18:07.615Z,25.13
2017-05-30T11:19:09.058Z,24.39
2017-05-30T11:20:11.147Z,23.75
2017-05-30T11:21:12.584Z,23.76
2017-05-30T11:22:14.767Z,23.65
2017-05-30T11:23:16.332Z,23.20
2017-05-30T11:24:18.328Z,22.92
2017-05-30T11:25:19.770Z,22.82
2017-05-30T11:26:21.207Z,22.89
2017-05-30T11:27:23.189Z,22.72
2017-05-30T11:28:24.626Z,22.74
2017-05-30T11:29:26.948Z,22.94
2017-05-30T11:30:28.391Z,23.01
2017-05-30T11:31:30.466Z,22.84
2017-05-30T11:32:31.898Z,23.20
2017-05-30T11:33:33.332Z,23.22
2017-05-30T11:34:35.344Z,23.17
2017-05-30T11:35:38.854Z,23.11
2017-05-30T11:36:40.845Z,23.22
2017-05-30T11:37:42.289Z,23.29
2017-05-30T11:38:44.520Z,23.46
2017-05-30T11:39:45.168Z,23.43
2017-05-30T11:40:46.607Z,23.50
2017-05-30T11:41:48.042Z,23.75
2017-05-30T11:42:52.927Z,23.62
2017-05-30T11:43:55.196Z,23.70
2017-05-30T11:44:56.639Z,23.70
2017-05-30T11:45:58.807Z,23.76
2017-05-30T11:47:00.242Z,23.83
2017-05-30T11:48:02.284Z,23.70
2017-05-30T11:49:03.721Z,23.75
2017-05-30T11:50:05.992Z,24.38
2017-05-30T11:51:07.428Z,24.64
2017-05-30T11:52:09.506Z,24.87
2017-05-30T11:53:10.946Z,25.30
2017-05-30T11:54:12.383Z,24.95
2017-05-30T11:55:14.364Z,24.90
2017-05-30T11:56:15.804Z,25.00
2017-05-30T11:57:18.092Z,25.42
2017-05-30T11:58:19.523Z,25.53
2017-05-30T11:59:21.688Z,25.72
2017-05-30T12:00:23.128Z,25.54
2017-05-30T12:01:24.565Z,25.42
2017-05-30T12:02:26.003Z,25.69
2017-05-30T12:03:27.438Z,25.77
2017-05-30T12:04:28.878Z,26.01
2017-05-30T12:05:30.313Z,25.91
2017-05-30T12:06:31.739Z,25.84
2017-05-30T12:07:33.179Z,25.86
2017-05-30T12:08:34.617Z,25.74
2017-05-30T12:09:36.058Z,25.65
2017-05-30T12:10:37.494Z,25.30
2017-05-30T12:11:38.929Z,25.39
2017-05-30T12:12:40.368Z,24.94
2017-05-30T12:13:41.806Z,24.94
2017-05-30T12:14:43.241Z,25.13
2017-05-30T12:15:45.514Z,24.77
2017-05-30T12:16:47.776Z,24.69
2017-05-30T12:17:50.187Z,24.73
2017-05-30T12:18:52.503Z,25.00
2017-05-30T12:19:53.951Z,25.09
2017-05-30T12:20:55.394Z,25.15
2017-05-30T12:21:56.824Z,25.13
2017-05-30T12:22:58.252Z,25.07
2017-05-30T12:24:00.275Z,24.94
2017-05-30T12:25:02.235Z,24.88
2017-05-30T12:26:03.667Z,24.59
2017-05-30T12:27:05.858Z,24.35
2017-05-30T12:28:08.273Z,23.95
2017-05-30T12:29:09.711Z,23.82
2017-05-30T12:30:11.965Z,23.46
2017-05-30T12:31:14.251Z,23.11
2017-05-30T12:32:15.686Z,22.96
2017-05-30T12:33:17.551Z,22.97
2017-05-30T12:34:18.985Z,22.96
2017-05-30T12:35:21.091Z,23.47
2017-05-30T12:36:23.122Z,23.85
2017-05-30T12:37:24.558Z,23.90
2017-05-30T12:38:25.995Z,24.02
2017-05-30T12:39:27.980Z,24.19
2017-05-30T12:40:30.098Z,24.20
2017-05-30T12:41:31.543Z,24.04
2017-05-30T12:42:33.968Z,24.29
2017-05-30T12:43:36.308Z,24.35
2017-05-30T12:44:38.513Z,24.04
2017-05-30T12:45:40.926Z,24.20
2017-05-30T12:46:43.627Z,24.20
2017-05-30T12:47:46.023Z,24.08
2017-05-30T12:48:48.129Z,23.98
2017-05-30T12:49:50.239Z,23.79
2017-05-30T12:50:51.673Z,23.70
2017-05-30T12:51:53.107Z,23.55
2017-05-30T12:52:54.544Z,23.31
2017-05-30T12:53:56.650Z,22.87
2017-05-30T12:54:58.846Z,22.93
2017-05-30T12:56:00.992Z,22.52
2017-05-30T12:57:03.187Z,22.53
2017-05-30T12:58:05.364Z,22.54
2017-05-30T12:59:06.810Z,22.23
2017-05-30T13:00:08.818Z,22.04
2017-05-30T13:01:10.817Z,22.20
2017-05-30T13:02:13.068Z,22.04
2017-05-30T13:03:15.051Z,21.97
2017-05-30T13:04:17.060Z,22.06
2017-05-30T13:05:18.508Z,22.32
2017-05-30T13:06:20.681Z,22.46
2017-05-30T13:07:22.113Z,22.32
2017-05-30T13:08:24.510Z,22.29
2017-05-30T13:09:25.948Z,22.22
2017-05-30T13:10:28.088Z,22.31
2017-05-30T13:11:30.268Z,22.16
2017-05-30T13:12:31.697Z,21.98
2017-05-30T13:13:33.150Z,21.91
2017-05-30T13:14:34.581Z,21.72
2017-05-30T13:15:36.027Z,21.74
2017-05-30T13:16:38.067Z,21.90
2017-05-30T13:17:39.500Z,21.71
2017-05-30T13:18:40.937Z,21.78
2017-05-30T13:19:42.387Z,21.64
2017-05-30T13:20:43.816Z,21.57
2017-05-30T13:21:45.245Z,21.75
2017-05-30T13:22:46.679Z,21.95